createdAt,value
2022-09-23T00:05:26.484Z,101754.28
2022-09-23T00:07:56.031Z,101761.78
2022-09-23T00:10:23.760Z,101748.59
2022-09-23T00:12:51.605Z,101753.13
2022-09-23T00:15:19.427Z,101753.16
2022-09-23T00:17:47.360Z,101751.13
2022-09-23T00:20:15.392Z,101754.34
2022-09-23T00:22:42.785Z,101756.00
2022-09-23T00:25:12.546Z,101748.25
2022-09-23T00:27:41.958Z,101747.47
2022-09-23T00:30:11.147Z,101738.19
2022-09-23T00:32:40.166Z,101744.69
2022-09-23T00:35:09.096Z,101737.59
2022-09-23T00:37:36.580Z,101731.06
2022-09-23T00:40:04.641Z,101741.63
2022-09-23T00:42:33.406Z,101734.44
2022-09-23T00:45:01.934Z,101731.16
2022-09-23T00:47:33.520Z,101740.56
2022-09-23T00:50:06.582Z,101729.34
2022-09-23T00:52:34.453Z,101725.09
2022-09-23T00:55:05.666Z,101730.13
2022-09-23T00:57:35.409Z,101736.03
2022-09-23T01:00:02.949Z,101730.94
2022-09-23T01:02:31.027Z,101729.22
2022-09-23T01:05:02.558Z,101723.25
2022-09-23T01:07:30.603Z,101726.16
2022-09-23T01:10:00.445Z,101719.22
2022-09-23T01:12:44.391Z,101721.25
2022-09-23T01:15:19.384Z,101717.59
2022-09-23T01:17:56.508Z,101709.84
2022-09-23T01:20:48.271Z,101710.03
2022-09-23T01:23:33.503Z,101713.22
2022-09-23T01:26:23.701Z,101708.03
2022-09-23T01:29:12.374Z,101705.41
2022-09-23T01:31:48.960Z,101705.59
2022-09-23T01:34:24.456Z,101709.03
2022-09-23T01:36:56.887Z,101709.09
2022-09-23T01:39:32.859Z,101702.59
2022-09-23T01:42:03.555Z,101695.84
2022-09-23T01:44:38.451Z,101699.31
2022-09-23T01:47:12.300Z,101695.09
2022-09-23T01:49:51.930Z,101693.94
2022-09-23T01:52:25.654Z,101696.13
2022-09-23T01:54:58.723Z,101698.91
2022-09-23T01:57:31.871Z,101695.47
2022-09-23T02:00:05.582Z,101688.44
2022-09-23T02:02:48.000Z,101690.22
2022-09-23T02:05:21.072Z,101692.44
2022-09-23T02:07:54.674Z,101690.03
2022-09-23T02:10:26.757Z,101684.16
2022-09-23T02:12:58.121Z,101680.59
2022-09-23T02:15:30.051Z,101677.97
2022-09-23T02:18:03.433Z,101679.78
2022-09-23T02:20:35.336Z,101680.97
2022-09-23T02:23:07.587Z,101679.78
2022-09-23T02:25:41.315Z,101673.19
2022-09-23T02:28:16.893Z,101668.00
2022-09-23T02:30:49.933Z,101660.09
2022-09-23T02:33:23.907Z,101663.59
2022-09-23T02:35:57.001Z,101673.03
2022-09-23T02:38:32.798Z,101661.88
2022-09-23T02:41:07.527Z,101650.66
2022-09-23T02:43:43.647Z,101656.47
2022-09-23T02:46:11.143Z,101653.31
2022-09-23T02:48:44.093Z,101651.50
2022-09-23T02:51:11.901Z,101645.44
2022-09-23T02:53:39.757Z,101642.66
2022-09-23T02:56:15.526Z,101643.47
2022-09-23T02:58:43.300Z,101637.91
2022-09-23T03:01:19.614Z,101640.63
2022-09-23T03:03:55.520Z,101636.44
2022-09-23T03:06:28.675Z,101636.63
2022-09-23T03:09:01.168Z,101638.94
2022-09-23T03:11:29.188Z,101635.22
2022-09-23T03:14:17.198Z,101632.00
2022-09-23T03:16:51.637Z,101628.78
2022-09-23T03:19:27.456Z,101627.84
2022-09-23T03:22:02.058Z,101621.78
2022-09-23T03:24:32.193Z,101624.53
2022-09-23T03:27:02.997Z,101622.63
2022-09-23T03:29:32.236Z,101618.97
2022-09-23T03:32:02.147Z,101619.59
2022-09-23T03:34:34.800Z,101618.94
2022-09-23T03:37:08.985Z,101622.50
2022-09-23T03:39:40.225Z,101618.13
2022-09-23T03:42:13.212Z,101614.38
2022-09-23T03:44:44.506Z,101622.50
2022-09-23T03:47:14.485Z,101611.66
2022-09-23T03:49:45.559Z,101616.19
2022-09-23T03:52:12.939Z,101614.19
2022-09-23T03:54:40.325Z,101609.13
2022-09-23T03:57:07.763Z,101609.91
2022-09-23T03:59:35.253Z,101603.78
2022-09-23T04:02:02.788Z,101600.56
2022-09-23T04:04:32.366Z,101607.34
2022-09-23T04:07:01.718Z,101604.63
2022-09-23T04:09:29.128Z,101592.47
2022-09-23T04:11:56.557Z,101599.59
2022-09-23T04:14:24.566Z,101586.66
2022-09-23T04:16:52.085Z,101592.84
2022-09-23T04:19:20.007Z,101591.19
2022-09-23T04:21:47.862Z,101593.66
2022-09-23T04:24:17.466Z,101585.81
2022-09-23T04:26:45.217Z,101586.03
2022-09-23T04:29:12.795Z,101592.84
2022-09-23T04:31:40.459Z,101586.38
2022-09-23T04:34:07.898Z,101582.97
2022-09-23T04:36:35.337Z,101583.22
2022-09-23T04:39:03.189Z,101585.66
2022-09-23T04:41:31.944Z,101582.34
2022-09-23T04:43:59.375Z,101581.75
2022-09-23T04:46:26.804Z,101576.41
2022-09-23T04:48:54.390Z,101571.13
2022-09-23T04:51:24.746Z,101577.19
2022-09-23T04:53:53.983Z,101577.13
2022-09-23T04:56:23.348Z,101572.19
2022-09-23T04:58:52.241Z,101572.31
2022-09-23T05:01:24.869Z,101577.47
2022-09-23T05:03:54.293Z,101574.88
2022-09-23T05:06:22.558Z,101571.44
2022-09-23T05:08:51.819Z,101573.75
2022-09-23T05:11:19.614Z,101573.84
2022-09-23T05:13:48.282Z,101578.91
2022-09-23T05:16:17.561Z,101577.47
2022-09-23T05:18:46.382Z,101563.09
2022-09-23T05:21:15.493Z,101568.19
2022-09-23T05:23:43.925Z,101570.03
2022-09-23T05:26:13.590Z,101570.03
2022-09-23T05:28:41.536Z,101570.06
2022-09-23T05:31:17.118Z,101565.06
2022-09-23T05:33:51.665Z,101566.84
2022-09-23T05:36:20.672Z,101563.78
2022-09-23T05:38:49.195Z,101565.91
2022-09-23T05:41:17.273Z,101567.03
2022-09-23T05:43:44.772Z,101567.28
2022-09-23T05:46:14.858Z,101560.53
2022-09-23T05:48:44.016Z,101571.00
2022-09-23T05:51:15.431Z,101558.94
2022-09-23T05:53:44.849Z,101557.69
2022-09-23T05:56:12.859Z,101564.56
2022-09-23T05:58:40.428Z,101569.97
2022-09-23T06:01:12.352Z,101561.78
2022-09-23T06:03:40.223Z,101562.66
2022-09-23T06:06:07.908Z,101571.25
2022-09-23T06:08:37.753Z,101563.66
2022-09-23T06:11:07.707Z,101568.69
2022-09-23T06:13:38.201Z,101559.41
2022-09-23T06:16:08.000Z,101564.63
2022-09-23T06:18:35.783Z,101566.44
2022-09-23T06:21:03.713Z,101567.41
2022-09-23T06:23:31.826Z,101568.41
2022-09-23T06:26:04.909Z,101557.34
2022-09-23T06:28:33.721Z,101563.84
2022-09-23T06:31:03.185Z,101559.84
2022-09-23T06:33:36.471Z,101564.38
2022-09-23T06:36:07.136Z,101558.84
2022-09-23T06:38:35.593Z,101565.19
2022-09-23T06:41:04.465Z,101562.19
2022-09-23T06:43:32.208Z,101572.50
2022-09-23T06:46:01.337Z,101570.81
2022-09-23T06:48:29.895Z,101570.00
2022-09-23T06:51:02.386Z,101569.44
2022-09-23T06:53:32.101Z,101571.19
2022-09-23T06:56:01.325Z,101567.78
2022-09-23T06:58:30.289Z,101563.78
2022-09-23T07:01:01.866Z,101569.56
2022-09-23T07:03:29.613Z,101568.16
2022-09-23T07:05:57.867Z,101560.06
2022-09-23T07:08:27.104Z,101568.88
2022-09-23T07:10:55.388Z,101563.41
2022-09-23T07:13:22.885Z,101563.34
2022-09-23T07:15:52.363Z,101566.94
2022-09-23T07:18:20.621Z,101567.09
2022-09-23T07:20:48.319Z,101566.34
2022-09-23T07:23:17.534Z,101557.91
2022-09-23T07:25:46.750Z,101563.78
2022-09-23T07:28:14.509Z,101571.66
2022-09-23T07:30:52.490Z,101572.00
2022-09-23T07:33:32.024Z,101567.63
2022-09-23T07:36:00.912Z,101565.16
2022-09-23T07:38:35.402Z,101562.97
2022-09-23T07:41:04.812Z,101556.59
2022-09-23T07:43:32.870Z,101558.38
2022-09-23T07:46:02.292Z,101559.34
2022-09-23T07:48:34.876Z,101561.03
2022-09-23T07:51:07.645Z,101565.53
2022-09-23T07:53:35.705Z,101562.19
2022-09-23T07:56:06.398Z,101559.59
2022-09-23T07:58:34.988Z,101560.53
2022-09-23T08:01:04.809Z,101556.13
2022-09-23T08:03:33.609Z,101562.81
2022-09-23T08:06:06.032Z,101559.47
2022-09-23T08:08:35.506Z,101554.66
2022-09-23T08:11:03.636Z,101558.00
2022-09-23T08:13:31.321Z,101544.28
2022-09-23T08:15:59.165Z,101549.47
2022-09-23T08:18:27.189Z,101545.06
2022-09-23T08:20:55.940Z,101546.09
2022-09-23T08:23:23.419Z,101542.59
2022-09-23T08:25:59.530Z,101547.81
2022-09-23T08:28:27.298Z,101547.94
2022-09-23T08:30:55.013Z,101550.56
2022-09-23T08:33:23.805Z,101541.03
2022-09-23T08:35:51.857Z,101541.03
2022-09-23T08:38:20.938Z,101546.25
2022-09-23T08:40:50.367Z,101536.78
2022-09-23T08:43:25.977Z,101537.63
2022-09-23T08:45:55.490Z,101538.53
2022-09-23T08:48:29.957Z,101530.69
2022-09-23T08:51:02.273Z,101525.53
2022-09-23T08:53:34.935Z,101524.59
2022-09-23T08:56:07.134Z,101518.50
2022-09-23T08:58:50.539Z,101514.09
2022-09-23T09:01:23.925Z,101516.72
2022-09-23T09:03:54.406Z,101518.56
2022-09-23T09:06:27.692Z,101518.66
2022-09-23T09:09:00.932Z,101526.44
2022-09-23T09:11:35.333Z,101519.53
2022-09-23T09:14:13.701Z,101525.47
2022-09-23T09:17:00.728Z,101520.28
2022-09-23T09:19:47.570Z,101518.66
2022-09-23T09:22:20.529Z,101513.47
2022-09-23T09:24:50.397Z,101513.47
2022-09-23T09:27:17.789Z,101513.47
2022-09-23T09:29:49.919Z,101508.28
2022-09-23T09:32:25.597Z,101504.81
2022-09-23T09:34:59.037Z,101503.09
2022-09-23T09:37:32.890Z,101510.00
2022-09-23T09:40:02.044Z,101503.06
2022-09-23T09:42:39.884Z,101495.25
2022-09-23T09:45:15.275Z,101490.06
2022-09-23T09:47:47.960Z,101483.09
2022-09-23T09:50:21.291Z,101482.22
2022-09-23T09:52:49.257Z,101477.94
2022-09-23T09:55:26.123Z,101480.56
2022-09-23T09:58:00.090Z,101471.88
2022-09-23T10:00:41.470Z,101462.34
2022-09-23T10:03:26.710Z,101468.41
2022-09-23T10:05:57.645Z,101464.00
2022-09-23T10:08:28.546Z,101459.59
2022-09-23T10:11:04.038Z,101466.66
2022-09-23T10:13:31.909Z,101463.13
2022-09-23T10:16:00.970Z,101462.31
2022-09-23T10:18:32.471Z,101457.94
2022-09-23T10:21:14.256Z,101456.22
2022-09-23T10:23:44.549Z,101455.25
2022-09-23T10:26:17.379Z,101454.53
2022-09-23T10:28:51.313Z,101451.78
2022-09-23T10:31:25.400Z,101451.91
2022-09-23T10:33:55.630Z,101446.69
2022-09-23T10:36:23.016Z,101444.69
2022-09-23T10:38:55.872Z,101445.56
2022-09-23T10:41:51.146Z,101444.06
2022-09-23T10:44:50.041Z,101441.38
2022-09-23T10:47:28.093Z,101438.66
2022-09-23T10:50:15.619Z,101436.63
2022-09-23T10:52:58.043Z,101436.94
2022-09-23T10:55:37.813Z,101445.50
2022-09-23T10:58:44.405Z,101439.41
2022-09-23T11:01:23.899Z,101436.88
2022-09-23T11:04:25.786Z,101423.50
2022-09-23T11:07:12.970Z,101420.00
2022-09-23T11:09:52.042Z,101417.44
2022-09-23T11:12:31.824Z,101410.16
2022-09-23T11:15:18.817Z,101426.25
2022-09-23T11:18:07.551Z,101413.91
2022-09-23T11:20:44.587Z,101410.47
2022-09-23T11:23:33.191Z,101396.44
2022-09-23T11:26:15.200Z,101399.47
2022-09-23T11:29:07.000Z,101390.44
2022-09-23T11:31:43.389Z,101375.47
2022-09-23T11:34:51.070Z,101377.16
2022-09-23T11:37:26.107Z,101374.56
2022-09-23T11:40:02.095Z,101368.19
2022-09-23T11:42:33.517Z,101372.47
2022-09-23T11:45:09.513Z,101366.19
2022-09-23T11:47:43.855Z,101369.19
2022-09-23T11:50:18.773Z,101354.47
2022-09-23T11:52:51.031Z,101362.25
2022-09-23T11:55:23.204Z,101356.91
2022-09-23T11:57:53.976Z,101361.44
2022-09-23T12:00:23.709Z,101354.81
2022-09-23T12:03:06.648Z,101349.25
2022-09-23T12:05:39.268Z,101341.78
2022-09-23T12:08:13.895Z,101337.38
2022-09-23T12:10:49.689Z,101332.09
2022-09-23T12:13:22.115Z,101332.13
2022-09-23T12:16:04.662Z,101325.31
2022-09-23T12:18:42.937Z,101326.44
2022-09-23T12:21:46.247Z,101326.88
2022-09-23T12:24:28.082Z,101325.75
2022-09-23T12:26:58.947Z,101320.25
2022-09-23T12:29:32.010Z,101330.06
2022-09-23T12:32:01.171Z,101325.56
2022-09-23T12:34:34.687Z,101314.53
2022-09-23T12:37:04.289Z,101311.47
2022-09-23T12:39:34.477Z,101313.75
2022-09-23T12:42:04.193Z,101310.56
2022-09-23T12:44:36.604Z,101305.78
2022-09-23T12:47:39.361Z,101304.19
2022-09-23T12:50:44.294Z,101304.16
2022-09-23T12:53:54.360Z,101297.25
2022-09-23T12:56:26.490Z,101299.13
2022-09-23T12:59:13.948Z,101297.44
2022-09-23T13:01:41.994Z,101292.06
2022-09-23T13:04:49.903Z,101281.19
2022-09-23T13:07:19.284Z,101285.03
2022-09-23T13:09:50.446Z,101277.44
2022-09-23T13:12:25.855Z,101279.28
2022-09-23T13:14:58.067Z,101276.41
2022-09-23T13:17:31.309Z,101269.56
2022-09-23T13:20:02.257Z,101267.50
2022-09-23T13:23:05.900Z,101266.97
2022-09-23T13:25:40.601Z,101262.84
2022-09-23T13:28:22.297Z,101259.31
2022-09-23T13:30:52.251Z,101250.03
2022-09-23T13:33:28.334Z,101251.88
2022-09-23T13:36:00.948Z,101247.00
2022-09-23T13:38:31.914Z,101239.69
2022-09-23T13:41:02.794Z,101236.25
2022-09-23T13:43:38.934Z,101240.63
2022-09-23T13:46:13.212Z,101225.28
2022-09-23T13:48:43.982Z,101227.72
2022-09-23T13:51:15.777Z,101223.31
2022-09-23T13:53:43.165Z,101220.47
2022-09-23T13:56:15.012Z,101215.78
2022-09-23T13:58:44.293Z,101215.31
2022-09-23T14:01:23.748Z,101210.66
2022-09-23T14:03:52.299Z,101207.22
2022-09-23T14:06:19.712Z,101208.81
2022-09-23T14:08:49.800Z,101203.63
2022-09-23T14:11:18.027Z,101203.19
2022-09-23T14:13:49.649Z,101198.72
2022-09-23T14:16:19.585Z,101193.44
2022-09-23T14:18:49.405Z,101204.31
2022-09-23T14:21:34.758Z,101204.94
2022-09-23T14:24:17.842Z,101188.38
2022-09-23T14:26:48.137Z,101188.97
2022-09-23T14:29:19.829Z,101182.66
2022-09-23T14:31:56.883Z,101182.22
2022-09-23T14:34:45.143Z,101176.16
2022-09-23T14:37:39.041Z,101177.09
2022-09-23T14:40:11.403Z,101175.91
2022-09-23T14:42:41.131Z,101175.38
2022-09-23T14:45:15.835Z,101169.75
2022-09-23T14:47:47.165Z,101168.88
2022-09-23T14:50:34.819Z,101175.41
2022-09-23T14:53:02.883Z,101174.53
2022-09-23T14:55:31.295Z,101170.28
2022-09-23T14:58:05.590Z,101171.75
2022-09-23T15:00:34.398Z,101168.03
2022-09-23T15:03:03.947Z,101163.81
2022-09-23T15:05:40.660Z,101165.06
2022-09-23T15:08:10.665Z,101168.19
2022-09-23T15:10:39.062Z,101167.41
2022-09-23T15:13:09.408Z,101160.38
2022-09-23T15:15:38.404Z,101160.03
2022-09-23T15:18:08.141Z,101165.78
2022-09-23T15:20:36.772Z,101157.88
2022-09-23T15:23:04.199Z,101158.00
2022-09-23T15:25:34.594Z,101156.09
2022-09-23T15:28:16.810Z,101152.03
2022-09-23T15:30:46.795Z,101153.53
2022-09-23T15:33:14.862Z,101150.47
2022-09-23T15:35:47.251Z,101147.19
2022-09-23T15:38:15.081Z,101150.06
2022-09-23T15:40:42.939Z,101149.41
2022-09-23T15:43:20.234Z,101148.31
2022-09-23T15:45:52.963Z,101151.06
2022-09-23T15:48:23.487Z,101143.53
2022-09-23T15:50:52.116Z,101149.00
2022-09-23T15:53:22.514Z,101149.84
2022-09-23T15:55:51.556Z,101147.81
2022-09-23T15:58:18.977Z,101144.09
2022-09-23T16:00:46.867Z,101140.63
2022-09-23T16:03:15.842Z,101141.81
2022-09-23T16:05:46.594Z,101137.63
2022-09-23T16:08:15.046Z,101139.56
2022-09-23T16:10:43.124Z,101133.16
2022-09-23T16:13:13.078Z,101134.16
2022-09-23T16:15:41.244Z,101132.38
2022-09-23T16:18:09.329Z,101139.31
2022-09-23T16:20:39.798Z,101134.25
2022-09-23T16:23:09.885Z,101137.53
2022-09-23T16:25:38.585Z,101144.81
2022-09-23T16:28:06.612Z,101135.91
2022-09-23T16:30:35.011Z,101133.31
2022-09-23T16:33:02.450Z,101133.22
2022-09-23T16:35:33.998Z,101140.19
2022-09-23T16:38:02.721Z,101138.63
2022-09-23T16:40:32.664Z,101137.03
2022-09-23T16:43:02.155Z,101131.25
2022-09-23T16:45:31.155Z,101131.06
2022-09-23T16:47:58.971Z,101125.72
2022-09-23T16:50:26.648Z,101126.56
2022-09-23T16:52:56.123Z,101135.25
2022-09-23T16:55:27.128Z,101121.59
2022-09-23T16:57:55.109Z,101131.97
2022-09-23T17:00:40.943Z,101127.66
2022-09-23T17:03:25.932Z,101124.28
2022-09-23T17:05:55.280Z,101119.06
2022-09-23T17:08:22.705Z,101111.41
2022-09-23T17:10:58.493Z,101120.97
2022-09-23T17:13:26.870Z,101116.56
2022-09-23T17:15:54.731Z,101115.84
2022-09-23T17:18:22.405Z,101110.66
2022-09-23T17:21:00.887Z,101105.50
2022-09-23T17:23:28.480Z,101102.06
2022-09-23T17:25:57.205Z,101112.56
2022-09-23T17:28:24.717Z,101110.00
2022-09-23T17:30:56.888Z,101098.69
2022-09-23T17:33:24.531Z,101108.34
2022-09-23T17:35:52.494Z,101105.81
2022-09-23T17:38:19.865Z,101114.63
2022-09-23T17:40:51.439Z,101109.28
2022-09-23T17:43:24.971Z,101112.75
2022-09-23T17:45:53.867Z,101114.59
2022-09-23T17:48:21.860Z,101111.13
2022-09-23T17:50:56.670Z,101105.94
2022-09-23T17:53:24.446Z,101111.22
2022-09-23T17:55:56.101Z,101104.31
2022-09-23T17:58:27.472Z,101105.25
2022-09-23T18:00:55.479Z,101116.56
2022-09-23T18:03:23.236Z,101116.50
2022-09-23T18:05:50.608Z,101111.31
2022-09-23T18:08:18.673Z,101112.28
2022-09-23T18:10:46.084Z,101119.22
2022-09-23T18:13:13.621Z,101118.28
2022-09-23T18:15:42.336Z,101121.75
2022-09-23T18:18:09.750Z,101118.34
2022-09-23T18:20:37.168Z,101116.59
2022-09-23T18:23:04.567Z,101109.66
2022-09-23T18:25:40.912Z,101119.13
2022-09-23T18:28:08.313Z,101111.25
2022-09-23T18:30:35.680Z,101113.81
2022-09-23T18:33:04.496Z,101116.47
2022-09-23T18:35:32.413Z,101112.16
2022-09-23T18:37:59.941Z,101109.53
2022-09-23T18:40:27.390Z,101102.63
2022-09-23T18:42:55.297Z,101112.16
2022-09-23T18:45:22.742Z,101107.88
2022-09-23T18:48:07.534Z,101107.13
2022-09-23T18:50:43.639Z,101115.88
2022-09-23T18:53:11.247Z,101108.16
2022-09-23T18:55:40.620Z,101107.25
2022-09-23T18:58:08.107Z,101115.03
2022-09-23T19:00:36.240Z,101109.91
2022-09-23T19:03:04.117Z,101102.09
2022-09-23T19:05:34.264Z,101102.94
2022-09-23T19:08:03.416Z,101112.47
2022-09-23T19:10:30.865Z,101109.03
2022-09-23T19:12:58.252Z,101111.63
2022-09-23T19:15:25.706Z,101114.19
2022-09-23T19:17:53.101Z,101110.78
2022-09-23T19:20:20.839Z,101102.94
2022-09-23T19:22:48.421Z,101111.59
2022-09-23T19:25:17.577Z,101105.50
2022-09-23T19:27:44.984Z,101100.25
2022-09-23T19:30:13.459Z,101101.13
2022-09-23T19:32:41.381Z,101101.16
2022-09-23T19:35:10.155Z,101103.81
2022-09-23T19:37:38.298Z,101096.09
2022-09-23T19:40:06.849Z,101096.03
2022-09-23T19:42:35.923Z,101096.09
2022-09-23T19:45:03.340Z,101092.56
2022-09-23T19:47:31.053Z,101096.97
2022-09-23T19:49:58.455Z,101103.00
2022-09-23T19:52:25.877Z,101100.44
2022-09-23T19:54:53.278Z,101096.13
2022-09-23T19:57:20.656Z,101096.16
2022-09-23T19:59:49.402Z,101093.50
2022-09-23T20:02:17.015Z,101092.59
2022-09-23T20:04:44.649Z,101094.22
2022-09-23T20:07:12.072Z,101096.88
2022-09-23T20:09:39.449Z,101096.88
2022-09-23T20:12:08.403Z,101095.19
2022-09-23T20:14:35.845Z,101090.84
2022-09-23T20:17:04.580Z,101089.19
2022-09-23T20:19:31.994Z,101083.09
2022-09-23T20:22:17.423Z,101086.53
2022-09-23T20:24:44.831Z,101087.44
2022-09-23T20:27:11.339Z,101088.31
2022-09-23T20:29:38.943Z,101084.88
2022-09-23T20:32:08.879Z,101077.00
2022-09-23T20:34:36.407Z,101071.91
2022-09-23T20:37:05.257Z,101080.53
2022-09-23T20:39:32.669Z,101079.72
2022-09-23T20:42:02.638Z,101070.16
2022-09-23T20:44:30.023Z,101078.84
2022-09-23T20:46:57.639Z,101070.16
2022-09-23T20:49:26.341Z,101075.38
2022-09-23T20:51:53.951Z,101068.44
2022-09-23T20:54:23.144Z,101074.47
2022-09-23T20:56:50.545Z,101071.03
2022-09-23T20:59:18.285Z,101069.25
2022-09-23T21:01:47.461Z,101071.09
2022-09-23T21:04:15.303Z,101068.44
2022-09-23T21:06:44.222Z,101070.19
2022-09-23T21:09:11.835Z,101068.44
2022-09-23T21:11:39.205Z,101059.75
2022-09-23T21:14:06.983Z,101059.78
2022-09-23T21:16:34.550Z,101058.91
2022-09-23T21:19:02.949Z,101052.91
2022-09-23T21:21:30.571Z,101052.91
2022-09-23T21:24:23.825Z,101054.59
2022-09-23T21:26:50.214Z,101057.13
2022-09-23T21:29:17.943Z,101048.47
2022-09-23T21:31:45.495Z,101044.22
2022-09-23T21:34:13.902Z,101052.13
2022-09-23T21:36:44.010Z,101052.88
2022-09-23T21:39:13.564Z,101051.22
2022-09-23T21:41:41.325Z,101045.97
2022-09-23T21:44:08.890Z,101040.81
2022-09-23T21:46:37.459Z,101045.94
2022-09-23T21:49:06.082Z,101040.75
2022-09-23T21:51:38.708Z,101043.34
2022-09-23T21:54:07.491Z,101036.38
2022-09-23T21:56:38.489Z,101036.47
2022-09-23T21:59:07.668Z,101039.06
2022-09-23T22:01:38.185Z,101041.69
2022-09-23T22:04:10.637Z,101039.03
2022-09-23T22:06:40.396Z,101042.47
2022-09-23T22:09:09.694Z,101038.19
2022-09-23T22:11:57.700Z,101039.91
2022-09-23T22:14:26.536Z,101039.03
2022-09-23T22:16:55.935Z,101035.63
2022-09-23T22:19:25.656Z,101034.75
2022-09-23T22:21:53.690Z,101033.88
2022-09-23T22:24:21.140Z,101030.44
2022-09-23T22:26:49.874Z,101034.72
2022-09-23T22:29:35.495Z,101031.34
2022-09-23T22:32:22.236Z,101031.31
2022-09-23T22:34:51.820Z,101025.22
2022-09-23T22:37:22.696Z,101033.94
2022-09-23T22:39:50.226Z,101022.69
2022-09-23T22:42:21.187Z,101023.59
2022-09-23T22:44:48.952Z,101013.13
2022-09-23T22:47:17.555Z,101011.47
2022-09-23T22:49:45.018Z,101013.13
2022-09-23T22:52:12.616Z,101006.22
2022-09-23T22:54:40.039Z,101006.25
2022-09-23T22:57:09.393Z,101006.28
2022-09-23T22:59:38.267Z,101004.50
2022-09-23T23:02:08.170Z,101010.56
2022-09-23T23:04:37.143Z,101009.72
2022-09-23T23:07:06.023Z,101004.56
2022-09-23T23:09:33.491Z,101006.25
2022-09-23T23:12:01.008Z,101007.13
2022-09-23T23:14:29.797Z,101001.88
2022-09-23T23:17:01.344Z,101008.00
2022-09-23T23:19:29.265Z,101003.69
2022-09-23T23:21:56.657Z,101001.94
2022-09-23T23:24:24.884Z,101000.19
2022-09-23T23:26:53.231Z,100999.38
2022-09-23T23:29:27.112Z,100995.00
2022-09-23T23:31:54.598Z,100994.16
2022-09-23T23:34:26.596Z,100991.56
2022-09-23T23:36:55.069Z,100988.13
2022-09-23T23:39:24.371Z,100980.34
2022-09-23T23:41:53.197Z,100983.81
2022-09-23T23:44:20.568Z,100983.88
2022-09-23T23:46:49.102Z,100981.22
2022-09-23T23:49:16.790Z,100979.50
2022-09-23T23:51:45.484Z,100979.50
2022-09-23T23:54:15.059Z,100978.63
2022-09-23T23:56:42.470Z,100975.19
2022-09-23T23:59:09.949Z,100980.38
